Terminal Aerodrome Forecast
Issued by NWS

Home | Current Version | Previous Version | Text Only | Print | Product List | Glossary Off
Versions: 1 2 3 4 5 6 7 8 9 10 11 12 13 14 15 16 17 18 19 20 21

000
FTUS43 KICT 191550 AAB
TAFRSL
TAF AMD
KRSL 191550Z 1916/2012 05009KT P6SM SCT015 BKN100
     FM192000 03011KT P6SM VCTS SCT025 BKN040CB
     FM200000 33013KT P6SM VCSH SCT015 BKN025=

USA.gov is the U.S. government's official web portal to all federal, state and local government web resources and services.